ASA1436 KSEA-KBOS
Flight info
| Callsign | ASA1436 |
|---|---|
| Flight time | N/A |
| Altitude | 33000 |
| Route | MONTN2 SEA ZADON ZELAK ZIRAN ZAXBY BLOWS GTF COKEE WILTN Q140 TTAIL SNARG/N0456F350 RUBKI Q140 AHPAH GONZZ PONCT JFUND2 |
| Aircraft | B738/M-SDE2E3FGHIRWXY/LB1 |
Departure
| Time | 2026-05-05 16:30 |
|---|---|
| Airport | Seattle–Tacoma International Airport (KSEA) |
Arrival
| Time | N/A |
|---|---|
| Airport | Boston Logan International Airport (KBOS) |
| Time | Latitude | Longitude | Altitude | Speed | Heading |
|---|---|---|---|---|---|
| 2026-05-05 15:58 | 47.44976 | -122.30382 | 411 ft | 0 kts | 158° |
| 2026-05-05 16:21 | 47.44997 | -122.30395 | 412 ft | 2 kts | 158° |
| 2026-05-05 16:22 | 47.45035 | -122.30426 | 414 ft | 2 kts | 101° |
| 2026-05-05 16:22 | 47.45034 | -122.30468 | 415 ft | 1 kts | 92° |
| 2026-05-05 16:23 | 47.45024 | -122.30502 | 414 ft | 2 kts | 39° |
| 2026-05-05 16:23 | 47.45011 | -122.30511 | 413 ft | 2 kts | 9° |
| 2026-05-05 16:23 | 47.45001 | -122.30512 | 413 ft | 0 kts | 360° |
| 2026-05-05 16:25 | 47.45034 | -122.30555 | 415 ft | 7 kts | 279° |
| 2026-05-05 16:25 | 47.45060 | -122.30618 | 416 ft | 8 kts | 333° |
| 2026-05-05 16:26 | 47.45175 | -122.30624 | 423 ft | 9 kts | 4° |
| 2026-05-05 16:26 | 47.45333 | -122.30623 | 430 ft | 13 kts | 1° |
| 2026-05-05 16:27 | 47.45430 | -122.30621 | 434 ft | 15 kts | 1° |
| 2026-05-05 16:27 | 47.45543 | -122.30620 | 438 ft | 17 kts | 360° |
| 2026-05-05 16:27 | 47.45651 | -122.30621 | 443 ft | 14 kts | 0° |
| 2026-05-05 16:27 | 47.45766 | -122.30617 | 443 ft | 20 kts | 2° |
| 2026-05-05 16:28 | 47.45924 | -122.30608 | 446 ft | 24 kts | 359° |
| 2026-05-05 16:28 | 47.46087 | -122.30615 | 442 ft | 23 kts | 2° |
| 2026-05-05 16:28 | 47.46242 | -122.30606 | 433 ft | 23 kts | 1° |
| 2026-05-05 16:28 | 47.46353 | -122.30620 | 424 ft | 11 kts | 329° |
| 2026-05-05 16:29 | 47.46371 | -122.30720 | 416 ft | 13 kts | 263° |
| 2026-05-05 16:29 | 47.46323 | -122.30770 | 417 ft | 8 kts | 179° |
| 2026-05-05 16:29 | 47.46090 | -122.30773 | 433 ft | 65 kts | 181° |
| 2026-05-05 16:29 | 47.45435 | -122.30779 | 431 ft | 124 kts | 180° |
| 2026-05-05 16:30 | 47.44387 | -122.30784 | 398 ft | 176 kts | 181° |
| 2026-05-05 16:30 | 47.43143 | -122.30776 | 964 ft | 179 kts | 182° |
| 2026-05-05 16:30 | 47.41840 | -122.30782 | 1401 ft | 202 kts | 180° |
| 2026-05-05 16:30 | 47.40365 | -122.30707 | 1844 ft | 226 kts | 178° |
| 2026-05-05 16:31 | 47.38711 | -122.30659 | 2260 ft | 245 kts | 181° |
| 2026-05-05 16:31 | 47.37027 | -122.30765 | 2925 ft | 250 kts | 184° |
| 2026-05-05 16:31 | 47.35242 | -122.30863 | 3404 ft | 263 kts | 180° |
| 2026-05-05 16:31 | 47.33431 | -122.30495 | 4026 ft | 269 kts | 157° |
| 2026-05-05 16:32 | 47.31987 | -122.28823 | 4698 ft | 270 kts | 122° |
| 2026-05-05 16:32 | 47.31418 | -122.26253 | 5364 ft | 269 kts | 88° |
| 2026-05-05 16:32 | 47.31918 | -122.23677 | 6039 ft | 267 kts | 54° |
| 2026-05-05 16:32 | 47.33163 | -122.21677 | 6752 ft | 267 kts | 44° |
| 2026-05-05 16:33 | 47.34348 | -122.19560 | 7381 ft | 273 kts | 56° |
| 2026-05-05 16:33 | 47.35228 | -122.17101 | 7993 ft | 276 kts | 66° |
| 2026-05-05 16:33 | 47.35862 | -122.14424 | 8556 ft | 280 kts | 68° |
| 2026-05-05 16:33 | 47.36805 | -122.11948 | 9109 ft | 281 kts | 51° |
| 2026-05-05 16:34 | 47.38091 | -122.09787 | 9649 ft | 284 kts | 46° |
| 2026-05-05 16:34 | 47.39411 | -122.07619 | 10170 ft | 288 kts | 48° |
| 2026-05-05 16:34 | 47.40709 | -122.05268 | 10473 ft | 301 kts | 51° |
| 2026-05-05 16:34 | 47.41995 | -122.02754 | 10697 ft | 317 kts | 52° |
| 2026-05-05 16:35 | 47.43318 | -122.00086 | 10940 ft | 330 kts | 53° |
| 2026-05-05 16:35 | 47.44696 | -121.97287 | 11152 ft | 345 kts | 52° |
| 2026-05-05 16:35 | 47.46132 | -121.94377 | 11314 ft | 359 kts | 52° |
| 2026-05-05 16:35 | 47.47628 | -121.91353 | 11476 ft | 373 kts | 52° |
| 2026-05-05 16:36 | 47.49162 | -121.88254 | 11952 ft | 377 kts | 52° |
| 2026-05-05 16:36 | 47.50712 | -121.85121 | 12405 ft | 378 kts | 52° |
| 2026-05-05 16:36 | 47.52254 | -121.81998 | 12990 ft | 379 kts | 52° |
| 2026-05-05 16:36 | 47.53797 | -121.78862 | 13532 ft | 380 kts | 52° |
| 2026-05-05 16:37 | 47.55183 | -121.75544 | 14069 ft | 385 kts | 61° |
| 2026-05-05 16:37 | 47.56041 | -121.71796 | 14606 ft | 392 kts | 76° |
| 2026-05-05 16:37 | 47.56250 | -121.67761 | 15075 ft | 399 kts | 85° |
| 2026-05-05 16:37 | 47.56229 | -121.63660 | 15596 ft | 402 kts | 87° |
| 2026-05-05 16:38 | 47.56153 | -121.59500 | 16082 ft | 406 kts | 87° |
| 2026-05-05 16:38 | 47.56064 | -121.55335 | 16573 ft | 408 kts | 87° |
| 2026-05-05 16:38 | 47.55978 | -121.51144 | 17052 ft | 411 kts | 86° |
| 2026-05-05 16:38 | 47.55899 | -121.46923 | 17546 ft | 413 kts | 86° |
| 2026-05-05 16:39 | 47.55827 | -121.42690 | 18007 ft | 416 kts | 86° |
| 2026-05-05 16:39 | 47.55758 | -121.38425 | 18504 ft | 418 kts | 86° |
| 2026-05-05 16:39 | 47.55693 | -121.34124 | 18908 ft | 422 kts | 86° |
| 2026-05-05 16:39 | 47.55626 | -121.29760 | 19364 ft | 426 kts | 86° |
| 2026-05-05 16:40 | 47.55559 | -121.25391 | 19828 ft | 428 kts | 86° |
| 2026-05-05 16:40 | 47.55489 | -121.20988 | 20250 ft | 432 kts | 86° |
| 2026-05-05 16:40 | 47.55416 | -121.16564 | 20763 ft | 434 kts | 86° |
| 2026-05-05 16:40 | 47.55341 | -121.12113 | 21185 ft | 437 kts | 86° |
| 2026-05-05 16:41 | 47.55262 | -121.07635 | 21634 ft | 440 kts | 86° |
| 2026-05-05 16:41 | 47.55182 | -121.03119 | 22030 ft | 443 kts | 86° |
| 2026-05-05 16:41 | 47.55099 | -120.98533 | 22463 ft | 446 kts | 86° |
| 2026-05-05 16:41 | 47.55014 | -120.93962 | 22887 ft | 448 kts | 85° |
| 2026-05-05 16:42 | 47.54927 | -120.89363 | 23297 ft | 452 kts | 85° |
| 2026-05-05 16:42 | 47.54837 | -120.84730 | 23779 ft | 454 kts | 85° |
| 2026-05-05 16:42 | 47.54745 | -120.80072 | 24177 ft | 458 kts | 85° |
| 2026-05-05 16:42 | 47.54650 | -120.75378 | 24590 ft | 461 kts | 85° |
| 2026-05-05 16:43 | 47.54553 | -120.70653 | 25029 ft | 463 kts | 85° |
| 2026-05-05 16:43 | 47.54451 | -120.65865 | 25432 ft | 466 kts | 85° |
| 2026-05-05 16:43 | 47.54349 | -120.61080 | 25780 ft | 470 kts | 86° |
| 2026-05-05 16:43 | 47.54243 | -120.56276 | 26205 ft | 472 kts | 86° |
| 2026-05-05 16:44 | 47.54135 | -120.51442 | 26571 ft | 474 kts | 86° |
| 2026-05-05 16:44 | 47.54023 | -120.46606 | 27187 ft | 471 kts | 86° |
| 2026-05-05 16:44 | 47.53908 | -120.41813 | 27682 ft | 470 kts | 85° |
| 2026-05-05 16:44 | 47.53804 | -120.37018 | 28218 ft | 468 kts | 85° |
| 2026-05-05 16:45 | 47.53722 | -120.32174 | 28593 ft | 469 kts | 85° |
| 2026-05-05 16:45 | 47.53652 | -120.27377 | 29063 ft | 467 kts | 85° |
| 2026-05-05 16:45 | 47.53585 | -120.22602 | 29576 ft | 465 kts | 85° |
| 2026-05-05 16:45 | 47.53516 | -120.17793 | 29988 ft | 464 kts | 85° |
| 2026-05-05 16:46 | 47.53446 | -120.12991 | 30370 ft | 464 kts | 85° |
| 2026-05-05 16:46 | 47.53372 | -120.08216 | 30795 ft | 463 kts | 85° |
| 2026-05-05 16:46 | 47.53295 | -120.03463 | 31108 ft | 463 kts | 85° |
| 2026-05-05 16:46 | 47.53215 | -119.98708 | 31564 ft | 461 kts | 85° |
| 2026-05-05 16:47 | 47.53132 | -119.93998 | 31936 ft | 460 kts | 85° |
| 2026-05-05 16:47 | 47.53047 | -119.89296 | 32250 ft | 460 kts | 85° |
| 2026-05-05 16:47 | 47.52961 | -119.84600 | 32631 ft | 458 kts | 85° |
| 2026-05-05 16:47 | 47.52872 | -119.79923 | 32959 ft | 458 kts | 84° |
| 2026-05-05 16:48 | 47.52781 | -119.75232 | 33255 ft | 458 kts | 85° |
| 2026-05-05 16:48 | 47.52688 | -119.70564 | 33627 ft | 456 kts | 84° |
| 2026-05-05 16:48 | 47.52591 | -119.65881 | 33953 ft | 455 kts | 84° |
| 2026-05-05 16:48 | 47.52495 | -119.61238 | 34282 ft | 454 kts | 84° |
| 2026-05-05 16:49 | 47.52397 | -119.56602 | 34579 ft | 454 kts | 84° |
| 2026-05-05 16:49 | 47.52297 | -119.51975 | 34887 ft | 453 kts | 84° |
| 2026-05-05 16:49 | 47.52095 | -119.42698 | 34946 ft | 454 kts | 84° |
| 2026-05-05 16:50 | 47.51881 | -119.33419 | 34946 ft | 452 kts | 85° |
| 2026-05-05 16:50 | 47.51661 | -119.24144 | 34941 ft | 455 kts | 84° |
| 2026-05-05 16:51 | 47.51435 | -119.14866 | 34934 ft | 454 kts | 84° |
| 2026-05-05 16:51 | 47.51199 | -119.05592 | 34937 ft | 454 kts | 84° |
| 2026-05-05 16:52 | 47.50955 | -118.96289 | 34938 ft | 454 kts | 84° |
| 2026-05-05 16:52 | 47.50705 | -118.87015 | 34941 ft | 454 kts | 84° |
| 2026-05-05 16:53 | 47.50447 | -118.77733 | 34936 ft | 454 kts | 84° |
| 2026-05-05 16:53 | 47.50180 | -118.68460 | 34947 ft | 453 kts | 84° |
| 2026-05-05 16:54 | 47.49909 | -118.59197 | 34944 ft | 454 kts | 84° |
| 2026-05-05 16:54 | 47.49629 | -118.49930 | 34952 ft | 454 kts | 84° |
| 2026-05-05 16:55 | 47.49341 | -118.40668 | 34956 ft | 453 kts | 84° |
| 2026-05-05 16:55 | 47.49045 | -118.31402 | 34960 ft | 453 kts | 84° |
| 2026-05-05 16:56 | 47.48746 | -118.22127 | 34956 ft | 455 kts | 84° |
| 2026-05-05 16:56 | 47.48435 | -118.12852 | 34959 ft | 453 kts | 84° |
| 2026-05-05 16:57 | 47.48115 | -118.03573 | 34961 ft | 455 kts | 84° |
| 2026-05-05 16:57 | 47.47791 | -117.94291 | 34964 ft | 454 kts | 84° |
| 2026-05-05 16:58 | 47.47459 | -117.85034 | 34978 ft | 454 kts | 84° |
| 2026-05-05 16:58 | 47.47117 | -117.75776 | 34988 ft | 453 kts | 84° |
| 2026-05-05 16:59 | 47.46768 | -117.66481 | 34994 ft | 454 kts | 84° |
| 2026-05-05 16:59 | 47.46386 | -117.57222 | 35001 ft | 455 kts | 85° |
| 2026-05-05 17:00 | 47.45815 | -117.47943 | 35002 ft | 456 kts | 86° |
| 2026-05-05 17:00 | 47.45172 | -117.38638 | 35002 ft | 457 kts | 86° |
| 2026-05-05 17:01 | 47.44531 | -117.29353 | 35005 ft | 458 kts | 86° |
| 2026-05-05 17:01 | 47.43893 | -117.20052 | 35000 ft | 457 kts | 86° |
| 2026-05-05 17:02 | 47.43257 | -117.10772 | 34987 ft | 458 kts | 86° |
| 2026-05-05 17:02 | 47.42617 | -117.01447 | 34986 ft | 458 kts | 86° |
| 2026-05-05 17:03 | 47.41972 | -116.92153 | 34977 ft | 456 kts | 86° |
| 2026-05-05 17:03 | 47.41323 | -116.82914 | 34979 ft | 457 kts | 86° |
| 2026-05-05 17:04 | 47.40666 | -116.73575 | 34981 ft | 457 kts | 86° |
| 2026-05-05 17:04 | 47.40001 | -116.64335 | 34980 ft | 456 kts | 86° |
| 2026-05-05 17:05 | 47.39333 | -116.55069 | 34991 ft | 458 kts | 85° |
| 2026-05-05 17:05 | 47.38653 | -116.45773 | 34921 ft | 458 kts | 85° |
| 2026-05-05 17:06 | 47.37918 | -116.36467 | 34999 ft | 461 kts | 87° |
| 2026-05-05 17:06 | 47.37128 | -116.27135 | 35007 ft | 459 kts | 86° |
| 2026-05-05 17:07 | 47.36426 | -116.17847 | 35011 ft | 458 kts | 86° |
| 2026-05-05 17:07 | 47.35733 | -116.08521 | 35014 ft | 458 kts | 86° |
| 2026-05-05 17:08 | 47.35027 | -115.99231 | 35026 ft | 458 kts | 86° |
| 2026-05-05 17:08 | 47.34306 | -115.89933 | 35026 ft | 459 kts | 86° |
| 2026-05-05 17:09 | 47.33575 | -115.80619 | 35027 ft | 459 kts | 86° |
| 2026-05-05 17:09 | 47.32829 | -115.71310 | 35036 ft | 459 kts | 86° |
| 2026-05-05 17:10 | 47.32080 | -115.62019 | 35030 ft | 459 kts | 86° |
| 2026-05-05 17:10 | 47.31323 | -115.52745 | 35037 ft | 458 kts | 86° |
| 2026-05-05 17:11 | 47.30559 | -115.43455 | 35036 ft | 459 kts | 85° |
| 2026-05-05 17:11 | 47.29788 | -115.34178 | 35033 ft | 457 kts | 86° |
| 2026-05-05 17:12 | 47.29012 | -115.24903 | 35036 ft | 461 kts | 86° |
| 2026-05-05 17:12 | 47.28221 | -115.15561 | 35043 ft | 461 kts | 86° |
| 2026-05-05 17:13 | 47.27418 | -115.06228 | 35057 ft | 459 kts | 86° |
| 2026-05-05 17:13 | 47.27154 | -114.97033 | 35063 ft | 446 kts | 76° |
| 2026-05-05 17:14 | 47.27548 | -114.88056 | 35059 ft | 439 kts | 73° |
| 2026-05-05 17:14 | 47.28153 | -114.79122 | 35051 ft | 439 kts | 72° |
| 2026-05-05 17:15 | 47.28772 | -114.70229 | 35044 ft | 439 kts | 72° |
| 2026-05-05 17:15 | 47.29362 | -114.61339 | 35049 ft | 438 kts | 72° |
| 2026-05-05 17:16 | 47.29931 | -114.52434 | 35057 ft | 439 kts | 73° |
| 2026-05-05 17:16 | 47.30487 | -114.43476 | 35064 ft | 441 kts | 72° |
| 2026-05-05 17:17 | 47.31032 | -114.34520 | 35071 ft | 440 kts | 73° |
| 2026-05-05 17:17 | 47.31568 | -114.25575 | 35075 ft | 441 kts | 73° |
| 2026-05-05 17:18 | 47.32099 | -114.16580 | 35076 ft | 441 kts | 73° |
| 2026-05-05 17:18 | 47.32620 | -114.07608 | 35079 ft | 442 kts | 73° |
| 2026-05-05 17:19 | 47.33134 | -113.98650 | 35079 ft | 442 kts | 73° |
| 2026-05-05 17:19 | 47.33643 | -113.89675 | 35074 ft | 442 kts | 73° |
| 2026-05-05 17:20 | 47.34148 | -113.80661 | 35059 ft | 441 kts | 73° |
| 2026-05-05 17:20 | 47.34642 | -113.71707 | 35043 ft | 442 kts | 73° |
| 2026-05-05 17:21 | 47.35130 | -113.62710 | 35053 ft | 441 kts | 73° |
| 2026-05-05 17:22 | 47.35856 | -113.49215 | 35058 ft | 440 kts | 73° |
| 2026-05-05 17:22 | 47.36327 | -113.40247 | 35057 ft | 442 kts | 73° |
| 2026-05-05 17:23 | 47.36790 | -113.31277 | 35054 ft | 441 kts | 73° |
| 2026-05-05 17:23 | 47.37246 | -113.22262 | 35049 ft | 442 kts | 73° |
| 2026-05-05 17:24 | 47.37696 | -113.13268 | 35036 ft | 443 kts | 73° |
| 2026-05-05 17:24 | 47.38137 | -113.04274 | 35033 ft | 441 kts | 73° |
| 2026-05-05 17:25 | 47.38568 | -112.95286 | 35025 ft | 443 kts | 73° |
| 2026-05-05 17:25 | 47.39006 | -112.86233 | 35018 ft | 442 kts | 73° |
| 2026-05-05 17:26 | 47.39431 | -112.77220 | 35012 ft | 444 kts | 73° |
| 2026-05-05 17:26 | 47.39839 | -112.68214 | 35022 ft | 441 kts | 73° |
| 2026-05-05 17:27 | 47.40244 | -112.59176 | 35046 ft | 444 kts | 73° |
| 2026-05-05 17:27 | 47.40640 | -112.50172 | 35077 ft | 440 kts | 73° |
| 2026-05-05 17:28 | 47.41037 | -112.41152 | 35086 ft | 445 kts | 73° |
| 2026-05-05 17:28 | 47.41433 | -112.32054 | 35100 ft | 446 kts | 73° |
| 2026-05-05 17:29 | 47.41814 | -112.22919 | 35114 ft | 444 kts | 73° |
| 2026-05-05 17:29 | 47.42180 | -112.13891 | 35117 ft | 444 kts | 73° |
| 2026-05-05 17:30 | 47.42549 | -112.04834 | 35116 ft | 442 kts | 73° |
| 2026-05-05 17:30 | 47.42906 | -111.95763 | 35118 ft | 444 kts | 73° |
| 2026-05-05 17:31 | 47.43255 | -111.86688 | 35124 ft | 445 kts | 73° |
| 2026-05-05 17:31 | 47.43610 | -111.77572 | 35132 ft | 446 kts | 73° |
| 2026-05-05 17:32 | 47.43948 | -111.68484 | 35133 ft | 445 kts | 73° |
| 2026-05-05 17:32 | 47.44280 | -111.59371 | 35129 ft | 446 kts | 73° |
| 2026-05-05 17:33 | 47.44605 | -111.50257 | 35119 ft | 445 kts | 74° |
| 2026-05-05 17:33 | 47.44918 | -111.41245 | 35126 ft | 440 kts | 74° |
| 2026-05-05 17:34 | 47.45066 | -111.32133 | 35121 ft | 448 kts | 77° |
| 2026-05-05 17:34 | 47.45048 | -111.22929 | 35121 ft | 451 kts | 78° |
| 2026-05-05 17:35 | 47.45011 | -111.13720 | 35109 ft | 449 kts | 78° |
| 2026-05-05 17:35 | 47.44992 | -111.04510 | 35112 ft | 453 kts | 78° |
| 2026-05-05 17:36 | 47.44975 | -110.95204 | 35117 ft | 451 kts | 78° |
| 2026-05-05 17:36 | 47.44948 | -110.85956 | 35124 ft | 455 kts | 78° |
| 2026-05-05 17:37 | 47.44923 | -110.76653 | 35097 ft | 453 kts | 78° |
| 2026-05-05 17:37 | 47.44895 | -110.67363 | 35301 ft | 453 kts | 78° |
| 2026-05-05 17:37 | 47.44879 | -110.62707 | 35150 ft | 453 kts | 78° |
| 2026-05-05 17:38 | 47.44859 | -110.58083 | 35094 ft | 450 kts | 78° |
| 2026-05-05 17:38 | 47.44814 | -110.48901 | 35079 ft | 451 kts | 78° |
| 2026-05-05 17:39 | 47.44770 | -110.39670 | 35076 ft | 452 kts | 79° |
| 2026-05-05 17:39 | 47.44714 | -110.30375 | 35089 ft | 456 kts | 80° |
| 2026-05-05 17:40 | 47.44647 | -110.21041 | 35096 ft | 454 kts | 80° |
| 2026-05-05 17:40 | 47.44574 | -110.11760 | 35102 ft | 456 kts | 80° |
| 2026-05-05 17:41 | 47.44501 | -110.02424 | 35104 ft | 456 kts | 81° |
| 2026-05-05 17:41 | 47.44413 | -109.93118 | 35108 ft | 455 kts | 81° |
| 2026-05-05 17:42 | 47.44319 | -109.83762 | 35103 ft | 459 kts | 81° |
| 2026-05-05 17:42 | 47.44215 | -109.74392 | 35106 ft | 459 kts | 81° |
| 2026-05-05 17:43 | 47.44098 | -109.64990 | 35101 ft | 459 kts | 82° |
| 2026-05-05 17:43 | 47.43975 | -109.55600 | 35094 ft | 458 kts | 82° |
| 2026-05-05 17:44 | 47.43854 | -109.46217 | 35092 ft | 461 kts | 82° |
| 2026-05-05 17:44 | 47.43720 | -109.36772 | 35084 ft | 460 kts | 82° |
| 2026-05-05 17:45 | 47.43579 | -109.27315 | 35075 ft | 464 kts | 83° |
| 2026-05-05 17:45 | 47.43427 | -109.17874 | 35081 ft | 461 kts | 84° |
| 2026-05-05 17:46 | 47.43271 | -109.08391 | 35089 ft | 464 kts | 84° |
| 2026-05-05 17:46 | 47.43104 | -108.98894 | 35099 ft | 463 kts | 84° |
| 2026-05-05 17:47 | 47.42928 | -108.89433 | 35099 ft | 463 kts | 84° |
| 2026-05-05 17:47 | 47.42744 | -108.79980 | 35098 ft | 464 kts | 84° |
| 2026-05-05 17:48 | 47.42553 | -108.70470 | 35095 ft | 463 kts | 85° |
| 2026-05-05 17:48 | 47.42357 | -108.60989 | 35094 ft | 465 kts | 85° |
| 2026-05-05 17:49 | 47.42153 | -108.51501 | 35090 ft | 465 kts | 85° |
| 2026-05-05 17:49 | 47.41933 | -108.41982 | 35091 ft | 464 kts | 85° |
| 2026-05-05 17:50 | 47.41708 | -108.32465 | 35094 ft | 465 kts | 86° |
| 2026-05-05 17:50 | 47.41478 | -108.22948 | 35098 ft | 465 kts | 86° |
| 2026-05-05 17:51 | 47.41238 | -108.13437 | 35096 ft | 466 kts | 86° |
| 2026-05-05 17:51 | 47.40987 | -108.03890 | 35095 ft | 466 kts | 86° |
| 2026-05-05 17:52 | 47.40735 | -107.94391 | 35095 ft | 466 kts | 86° |
| 2026-05-05 17:52 | 47.40475 | -107.84866 | 35093 ft | 467 kts | 86° |
| 2026-05-05 17:53 | 47.40207 | -107.75332 | 35089 ft | 467 kts | 87° |
| 2026-05-05 17:53 | 47.39930 | -107.65750 | 35084 ft | 467 kts | 87° |
| 2026-05-05 17:54 | 47.39642 | -107.56207 | 35076 ft | 467 kts | 87° |
| 2026-05-05 17:54 | 47.39349 | -107.46673 | 35069 ft | 467 kts | 87° |
| 2026-05-05 17:55 | 47.39037 | -107.37093 | 35071 ft | 468 kts | 87° |
| 2026-05-05 17:55 | 47.38720 | -107.27538 | 35074 ft | 469 kts | 88° |
| 2026-05-05 17:56 | 47.38403 | -107.17967 | 35083 ft | 469 kts | 88° |
| 2026-05-05 17:56 | 47.38078 | -107.08369 | 35092 ft | 471 kts | 88° |
| 2026-05-05 17:57 | 47.37739 | -106.98752 | 35099 ft | 469 kts | 89° |
| 2026-05-05 17:57 | 47.37393 | -106.89188 | 35098 ft | 469 kts | 89° |
| 2026-05-05 17:58 | 47.37088 | -106.79621 | 35094 ft | 470 kts | 88° |
| 2026-05-05 17:58 | 47.36878 | -106.69991 | 35088 ft | 469 kts | 87° |
| 2026-05-05 17:59 | 47.36681 | -106.60442 | 35081 ft | 469 kts | 87° |
| 2026-05-05 17:59 | 47.36469 | -106.50869 | 35077 ft | 469 kts | 88° |
| 2026-05-05 18:00 | 47.36238 | -106.41282 | 35078 ft | 471 kts | 88° |
| 2026-05-05 18:00 | 47.35995 | -106.31641 | 35079 ft | 471 kts | 88° |
| 2026-05-05 18:01 | 47.35742 | -106.22025 | 35074 ft | 472 kts | 89° |
| 2026-05-05 18:01 | 47.35479 | -106.12400 | 35070 ft | 472 kts | 89° |
| 2026-05-05 18:02 | 47.35206 | -106.02768 | 35064 ft | 471 kts | 89° |
| 2026-05-05 18:02 | 47.34927 | -105.93173 | 35061 ft | 471 kts | 89° |
| 2026-05-05 18:03 | 47.34642 | -105.83562 | 35068 ft | 473 kts | 89° |
| 2026-05-05 18:03 | 47.34345 | -105.73901 | 35071 ft | 474 kts | 89° |
| 2026-05-05 18:04 | 47.34039 | -105.64210 | 35068 ft | 475 kts | 89° |
| 2026-05-05 18:04 | 47.33725 | -105.54531 | 35064 ft | 475 kts | 89° |
| 2026-05-05 18:05 | 47.33406 | -105.44865 | 35063 ft | 475 kts | 89° |
| 2026-05-05 18:05 | 47.33076 | -105.35152 | 35061 ft | 475 kts | 89° |
| 2026-05-05 18:06 | 47.32734 | -105.25437 | 35060 ft | 477 kts | 90° |
| 2026-05-05 18:06 | 47.32384 | -105.15732 | 35057 ft | 476 kts | 90° |
| 2026-05-05 18:07 | 47.32028 | -105.06027 | 35052 ft | 477 kts | 90° |
| 2026-05-05 18:07 | 47.31662 | -104.96278 | 35050 ft | 477 kts | 90° |
| 2026-05-05 18:08 | 47.31293 | -104.86571 | 35054 ft | 477 kts | 90° |
| 2026-05-05 18:08 | 47.30914 | -104.76875 | 35055 ft | 476 kts | 90° |
| 2026-05-05 18:09 | 47.30524 | -104.67134 | 35057 ft | 478 kts | 90° |
| 2026-05-05 18:09 | 47.30127 | -104.57410 | 35058 ft | 477 kts | 90° |
| 2026-05-05 18:10 | 47.29721 | -104.47698 | 35053 ft | 478 kts | 90° |
| 2026-05-05 18:10 | 47.29306 | -104.37973 | 35055 ft | 479 kts | 90° |
| 2026-05-05 18:11 | 47.28883 | -104.28215 | 35045 ft | 478 kts | 91° |
| 2026-05-05 18:11 | 47.28453 | -104.18485 | 35041 ft | 480 kts | 91° |
| 2026-05-05 18:12 | 47.28014 | -104.08749 | 35038 ft | 479 kts | 91° |
| 2026-05-05 18:12 | 47.27565 | -103.98991 | 35036 ft | 479 kts | 91° |
| 2026-05-05 18:13 | 47.27109 | -103.89251 | 35032 ft | 480 kts | 91° |
| 2026-05-05 18:13 | 47.26642 | -103.79489 | 35037 ft | 481 kts | 91° |
| 2026-05-05 18:14 | 47.26168 | -103.69747 | 35036 ft | 480 kts | 91° |
| 2026-05-05 18:14 | 47.25683 | -103.59951 | 35034 ft | 481 kts | 92° |
| 2026-05-05 18:15 | 47.25191 | -103.50171 | 35029 ft | 481 kts | 92° |
| 2026-05-05 18:15 | 47.24689 | -103.40385 | 35024 ft | 482 kts | 92° |
| 2026-05-05 18:16 | 47.24178 | -103.30562 | 35019 ft | 483 kts | 92° |
| 2026-05-05 18:16 | 47.23657 | -103.20773 | 35015 ft | 483 kts | 92° |
| 2026-05-05 18:17 | 47.23130 | -103.10938 | 35021 ft | 484 kts | 92° |
| 2026-05-05 18:17 | 47.22593 | -103.01125 | 35023 ft | 484 kts | 92° |
| 2026-05-05 18:18 | 47.22046 | -102.91279 | 35025 ft | 484 kts | 92° |
| 2026-05-05 18:18 | 47.21493 | -102.81474 | 35019 ft | 484 kts | 92° |
| 2026-05-05 18:19 | 47.20932 | -102.71643 | 35015 ft | 486 kts | 93° |
| 2026-05-05 18:19 | 47.20360 | -102.61766 | 35012 ft | 485 kts | 93° |
| 2026-05-05 18:20 | 47.19783 | -102.51948 | 35012 ft | 485 kts | 93° |
| 2026-05-05 18:20 | 47.19194 | -102.42112 | 35002 ft | 486 kts | 93° |
| 2026-05-05 18:21 | 47.18596 | -102.32270 | 35004 ft | 486 kts | 94° |
| 2026-05-05 18:21 | 47.17986 | -102.22392 | 35007 ft | 487 kts | 94° |
| 2026-05-05 18:22 | 47.17369 | -102.12530 | 35012 ft | 487 kts | 94° |
| 2026-05-05 18:22 | 47.16746 | -102.02675 | 35017 ft | 487 kts | 94° |
| 2026-05-05 18:23 | 47.16108 | -101.92762 | 35015 ft | 489 kts | 94° |
| 2026-05-05 18:23 | 47.15460 | -101.82885 | 35017 ft | 488 kts | 94° |
| 2026-05-05 18:24 | 47.14810 | -101.73008 | 35017 ft | 488 kts | 94° |
| 2026-05-05 18:24 | 47.14150 | -101.63140 | 35013 ft | 488 kts | 94° |
| 2026-05-05 18:25 | 47.13481 | -101.53239 | 35011 ft | 488 kts | 94° |
| 2026-05-05 18:25 | 47.12806 | -101.43366 | 34999 ft | 488 kts | 94° |
| 2026-05-05 18:26 | 47.12120 | -101.33500 | 34996 ft | 489 kts | 95° |
| 2026-05-05 18:26 | 47.11419 | -101.23565 | 34991 ft | 490 kts | 95° |
| 2026-05-05 18:27 | 47.10711 | -101.13678 | 34986 ft | 490 kts | 95° |
| 2026-05-05 18:27 | 47.09997 | -101.03779 | 34986 ft | 490 kts | 95° |
| 2026-05-05 18:28 | 47.08907 | -100.88880 | 34981 ft | 491 kts | 95° |
| 2026-05-05 18:28 | 47.08170 | -100.78961 | 34981 ft | 492 kts | 95° |
| 2026-05-05 18:29 | 47.07413 | -100.69025 | 34978 ft | 492 kts | 95° |
| 2026-05-05 18:29 | 47.06637 | -100.59104 | 34976 ft | 492 kts | 95° |
| 2026-05-05 18:30 | 47.05848 | -100.49154 | 34976 ft | 492 kts | 95° |
| 2026-05-05 18:30 | 47.05051 | -100.39250 | 34973 ft | 492 kts | 95° |
| 2026-05-05 18:31 | 47.04248 | -100.29342 | 34972 ft | 492 kts | 96° |
| 2026-05-05 18:31 | 47.03433 | -100.19377 | 34971 ft | 494 kts | 96° |
| 2026-05-05 18:32 | 47.02610 | -100.09443 | 34971 ft | 493 kts | 96° |
| 2026-05-05 18:32 | 47.01779 | -99.99491 | 34969 ft | 495 kts | 96° |
| 2026-05-05 18:33 | 47.00940 | -99.89525 | 34969 ft | 496 kts | 96° |
| 2026-05-05 18:33 | 47.00087 | -99.79526 | 34970 ft | 495 kts | 96° |
| 2026-05-05 18:34 | 46.99227 | -99.69571 | 34969 ft | 497 kts | 96° |
| 2026-05-05 18:34 | 46.98355 | -99.59591 | 34967 ft | 496 kts | 96° |
| 2026-05-05 18:35 | 46.97474 | -99.49590 | 34963 ft | 497 kts | 96° |
| 2026-05-05 18:35 | 46.96588 | -99.39603 | 34959 ft | 497 kts | 96° |
| 2026-05-05 18:36 | 46.95693 | -99.29628 | 34954 ft | 497 kts | 97° |
| 2026-05-05 18:36 | 46.94785 | -99.19659 | 34952 ft | 498 kts | 97° |
| 2026-05-05 18:37 | 46.93867 | -99.09632 | 34956 ft | 498 kts | 97° |
| 2026-05-05 18:37 | 46.92945 | -98.99637 | 34961 ft | 498 kts | 97° |
| 2026-05-05 18:38 | 46.92014 | -98.89660 | 34967 ft | 498 kts | 97° |
| 2026-05-05 18:38 | 46.91068 | -98.79620 | 34974 ft | 499 kts | 97° |
| 2026-05-05 18:39 | 46.90117 | -98.69637 | 34983 ft | 499 kts | 97° |
| 2026-05-05 18:39 | 46.89157 | -98.59699 | 34981 ft | 498 kts | 97° |
| 2026-05-05 18:40 | 46.88185 | -98.49694 | 34975 ft | 501 kts | 97° |
| 2026-05-05 18:40 | 46.87200 | -98.39606 | 34967 ft | 501 kts | 97° |
| 2026-05-05 18:41 | 46.86210 | -98.29555 | 34964 ft | 502 kts | 98° |
| 2026-05-05 18:41 | 46.85209 | -98.19510 | 34966 ft | 502 kts | 98° |
| 2026-05-05 18:42 | 46.84195 | -98.09442 | 34975 ft | 502 kts | 98° |
| 2026-05-05 18:42 | 46.83175 | -97.99397 | 34974 ft | 502 kts | 98° |
| 2026-05-05 18:43 | 46.82150 | -97.89374 | 34977 ft | 503 kts | 98° |
| 2026-05-05 18:43 | 46.81110 | -97.79316 | 34974 ft | 503 kts | 98° |